sensor_id;sensor_type;location;lat;lon;timestamp;pressure;altitude;pressure_sealevel;temperature;humidity
64023;BME280;50264;52.088;5.296;2023-05-14T00:01:34;101986.0;;;14.73;77.86
64023;BME280;50264;52.088;5.296;2023-05-14T00:03:11;101985.0;;;14.66;78.16
64023;BME280;50264;52.088;5.296;2023-05-14T00:04:47;101985.0;;;14.55;78.27
64023;BME280;50264;52.088;5.296;2023-05-14T00:07:59;101985.0;;;14.52;78.0
64023;BME280;50264;52.088;5.296;2023-05-14T00:09:35;101985.0;;;14.56;77.83
64023;BME280;50264;52.088;5.296;2023-05-14T00:11:12;101980.0;;;14.59;78.08
64023;BME280;50264;52.088;5.296;2023-05-14T00:12:50;101981.0;;;14.52;78.73
64023;BME280;50264;52.088;5.296;2023-05-14T00:16:02;101982.0;;;14.48;78.61
64023;BME280;50264;52.088;5.296;2023-05-14T00:17:39;101974.0;;;14.51;78.83
64023;BME280;50264;52.088;5.296;2023-05-14T00:19:15;101973.0;;;14.36;79.42
64023;BME280;50264;52.088;5.296;2023-05-14T00:22:28;101969.0;;;14.4;79.47
64023;BME280;50264;52.088;5.296;2023-05-14T00:24:04;101966.0;;;14.31;79.7
64023;BME280;50264;52.088;5.296;2023-05-14T00:25:40;101968.0;;;14.24;79.83
64023;BME280;50264;52.088;5.296;2023-05-14T00:28:52;101966.0;;;14.23;79.88
64023;BME280;50264;52.088;5.296;2023-05-14T00:30:29;101965.0;;;14.23;79.58
64023;BME280;50264;52.088;5.296;2023-05-14T00:32:06;101966.0;;;14.32;79.45
64023;BME280;50264;52.088;5.296;2023-05-14T00:33:43;101960.0;;;14.38;79.49
64023;BME280;50264;52.088;5.296;2023-05-14T00:36:56;101960.0;;;14.38;79.8
64023;BME280;50264;52.088;5.296;2023-05-14T00:38:32;101959.0;;;14.3;78.89
64023;BME280;50264;52.088;5.296;2023-05-14T00:40:09;101952.0;;;14.19;80.22
64023;BME280;50264;52.088;5.296;2023-05-14T00:43:21;101951.0;;;14.37;79.72
64023;BME280;50264;52.088;5.296;2023-05-14T00:44:59;101952.0;;;14.28;80.64
64023;BME280;50264;52.088;5.296;2023-05-14T00:46:35;101952.0;;;14.26;80.47
64023;BME280;50264;52.088;5.296;2023-05-14T00:49:48;101949.0;;;14.26;79.91
64023;BME280;50264;52.088;5.296;2023-05-14T00:51:25;101946.0;;;14.14;79.7
64023;BME280;50264;52.088;5.296;2023-05-14T00:53:01;101945.0;;;14.06;80.42
64023;BME280;50264;52.088;5.296;2023-05-14T00:54:38;101938.0;;;14.02;80.87
64023;BME280;50264;52.088;5.296;2023-05-14T00:57:53;101936.0;;;13.94;81.09
64023;BME280;50264;52.088;5.296;2023-05-14T00:59:31;101936.0;;;13.94;80.92
64023;BME280;50264;52.088;5.296;2023-05-14T01:01:08;101934.0;;;13.79;81.69
64023;BME280;50264;52.088;5.296;2023-05-14T01:04:21;101932.0;;;13.72;81.74
64023;BME280;50264;52.088;5.296;2023-05-14T01:06:01;101930.0;;;13.7;81.8
64023;BME280;50264;52.088;5.296;2023-05-14T01:07:54;101933.0;;;13.59;82.29
64023;BME280;50264;52.088;5.296;2023-05-14T01:09:50;101934.0;;;13.44;82.95
64023;BME280;50264;52.088;5.296;2023-05-14T01:11:41;101935.0;;;13.36;83.17
64023;BME280;50264;52.088;5.296;2023-05-14T01:15:11;101936.0;;;13.28;83.19
64023;BME280;50264;52.088;5.296;2023-05-14T01:16:52;101934.0;;;13.3;83.67
64023;BME280;50264;52.088;5.296;2023-05-14T01:18:32;101932.0;;;13.3;83.66
64023;BME280;50264;52.088;5.296;2023-05-14T01:20:09;101933.0;;;13.2;83.82
64023;BME280;50264;52.088;5.296;2023-05-14T01:21:47;101934.0;;;13.15;84.15
64023;BME280;50264;52.088;5.296;2023-05-14T01:24:59;101936.0;;;13.09;84.42
64023;BME280;50264;52.088;5.296;2023-05-14T01:26:36;101931.0;;;13.09;84.85
64023;BME280;50264;52.088;5.296;2023-05-14T01:28:14;101930.0;;;13.05;84.78
64023;BME280;50264;52.088;5.296;2023-05-14T01:31:39;101931.0;;;13.08;84.25
64023;BME280;50264;52.088;5.296;2023-05-14T01:33:20;101931.0;;;13.03;84.71
64023;BME280;50264;52.088;5.296;2023-05-14T01:34:58;101927.0;;;12.96;84.46
64023;BME280;50264;52.088;5.296;2023-05-14T01:36:36;101928.0;;;12.93;84.79
64023;BME280;50264;52.088;5.296;2023-05-14T01:39:55;101930.0;;;12.96;84.8
64023;BME280;50264;52.088;5.296;2023-05-14T01:41:32;101931.0;;;12.83;84.98
64023;BME280;50264;52.088;5.296;2023-05-14T01:43:08;101930.0;;;12.78;85.38
64023;BME280;50264;52.088;5.296;2023-05-14T01:46:21;101927.0;;;12.79;85.05
64023;BME280;50264;52.088;5.296;2023-05-14T01:47:57;101923.0;;;12.81;85.13
64023;BME280;50264;52.088;5.296;2023-05-14T01:49:34;101921.0;;;12.86;85.01
64023;BME280;50264;52.088;5.296;2023-05-14T01:51:11;101923.0;;;12.89;85.36
64023;BME280;50264;52.088;5.296;2023-05-14T01:54:23;101919.0;;;12.94;84.72
64023;BME280;50264;52.088;5.296;2023-05-14T01:55:59;101920.0;;;12.85;84.59
64023;BME280;50264;52.088;5.296;2023-05-14T01:57:35;101918.0;;;12.85;85.35
64023;BME280;50264;52.088;5.296;2023-05-14T02:00:47;101919.0;;;12.82;84.84
64023;BME280;50264;52.088;5.296;2023-05-14T02:02:25;101917.0;;;13.02;84.77
64023;BME280;50264;52.088;5.296;2023-05-14T02:04:01;101912.0;;;12.98;85.06
64023;BME280;50264;52.088;5.296;2023-05-14T02:07:13;101906.0;;;12.89;85.39
64023;BME280;50264;52.088;5.296;2023-05-14T02:08:49;101900.0;;;12.92;85.2
64023;BME280;50264;52.088;5.296;2023-05-14T02:10:25;101897.0;;;12.98;84.77
64023;BME280;50264;52.088;5.296;2023-05-14T02:12:02;101896.0;;;12.94;84.52
64023;BME280;50264;52.088;5.296;2023-05-14T02:15:15;101896.0;;;12.88;84.1
64023;BME280;50264;52.088;5.296;2023-05-14T02:16:51;101895.0;;;12.95;84.48
64023;BME280;50264;52.088;5.296;2023-05-14T02:18:27;101898.0;;;12.86;84.93
64023;BME280;50264;52.088;5.296;2023-05-14T02:21:42;101894.0;;;12.81;85.6
64023;BME280;50264;52.088;5.296;2023-05-14T02:23:18;101899.0;;;12.77;85.52
64023;BME280;50264;52.088;5.296;2023-05-14T02:24:54;101900.0;;;12.81;85.83
64023;BME280;50264;52.088;5.296;2023-05-14T02:28:06;101899.0;;;12.77;85.55
64023;BME280;50264;52.088;5.296;2023-05-14T02:29:43;101897.0;;;12.78;85.25
64023;BME280;50264;52.088;5.296;2023-05-14T02:31:19;101898.0;;;12.84;85.14
64023;BME280;50264;52.088;5.296;2023-05-14T02:32:56;101893.0;;;12.71;84.74
64023;BME280;50264;52.088;5.296;2023-05-14T02:36:09;101896.0;;;12.71;85.54
64023;BME280;50264;52.088;5.296;2023-05-14T02:37:46;101899.0;;;12.65;85.79
64023;BME280;50264;52.088;5.296;2023-05-14T02:39:22;101892.0;;;12.65;85.24
64023;BME280;50264;52.088;5.296;2023-05-14T02:44:10;101885.0;;;12.69;84.94
64023;BME280;50264;52.088;5.296;2023-05-14T02:45:47;101886.0;;;12.73;85.37
64023;BME280;50264;52.088;5.296;2023-05-14T02:48:59;101890.0;;;12.67;85.25
64023;BME280;50264;52.088;5.296;2023-05-14T02:50:36;101886.0;;;12.64;85.68
64023;BME280;50264;52.088;5.296;2023-05-14T02:52:12;101885.0;;;12.65;86.46
64023;BME280;50264;52.088;5.296;2023-05-14T02:53:49;101886.0;;;12.57;85.57
64023;BME280;50264;52.088;5.296;2023-05-14T02:57:01;101886.0;;;12.52;85.22
64023;BME280;50264;52.088;5.296;2023-05-14T02:58:37;101884.0;;;12.51;86.04
64023;BME280;50264;52.088;5.296;2023-05-14T03:00:13;101886.0;;;12.48;85.43
64023;BME280;50264;52.088;5.296;2023-05-14T03:03:28;101887.0;;;12.48;85.69
64023;BME280;50264;52.088;5.296;2023-05-14T03:05:05;101887.0;;;12.42;86.22
64023;BME280;50264;52.088;5.296;2023-05-14T03:06:41;101884.0;;;12.34;86.0
64023;BME280;50264;52.088;5.296;2023-05-14T03:09:53;101886.0;;;12.46;87.09
64023;BME280;50264;52.088;5.296;2023-05-14T03:11:29;101881.0;;;12.47;86.22
64023;BME280;50264;52.088;5.296;2023-05-14T03:13:05;101880.0;;;12.48;86.15
64023;BME280;50264;52.088;5.296;2023-05-14T03:16:17;101877.0;;;12.48;85.97
64023;BME280;50264;52.088;5.296;2023-05-14T03:17:55;101880.0;;;12.41;86.43
64023;BME280;50264;52.088;5.296;2023-05-14T03:19:31;101880.0;;;12.27;86.66
64023;BME280;50264;52.088;5.296;2023-05-14T03:21:07;101878.0;;;12.25;86.53
64023;BME280;50264;52.088;5.296;2023-05-14T03:24:21;101880.0;;;12.24;86.81
64023;BME280;50264;52.088;5.296;2023-05-14T03:25:57;101880.0;;;12.17;86.71
64023;BME280;50264;52.088;5.296;2023-05-14T03:27:34;101877.0;;;12.19;86.68
64023;BME280;50264;52.088;5.296;2023-05-14T03:30:47;101878.0;;;12.19;87.06
64023;BME280;50264;52.088;5.296;2023-05-14T03:32:23;101876.0;;;12.16;86.63
64023;BME280;50264;52.088;5.296;2023-05-14T03:33:59;101877.0;;;12.13;87.13
64023;BME280;50264;52.088;5.296;2023-05-14T03:37:11;101876.0;;;12.18;87.38
64023;BME280;50264;52.088;5.296;2023-05-14T03:38:48;101877.0;;;12.13;87.15
64023;BME280;50264;52.088;5.296;2023-05-14T03:40:24;101878.0;;;12.16;87.59
64023;BME280;50264;52.088;5.296;2023-05-14T03:42:00;101877.0;;;12.08;87.6
64023;BME280;50264;52.088;5.296;2023-05-14T03:45:12;101880.0;;;12.18;87.55
64023;BME280;50264;52.088;5.296;2023-05-14T03:46:48;101883.0;;;12.22;88.0
64023;BME280;50264;52.088;5.296;2023-05-14T03:48:24;101878.0;;;12.32;88.01
64023;BME280;50264;52.088;5.296;2023-05-14T03:51:38;101880.0;;;12.33;87.11
64023;BME280;50264;52.088;5.296;2023-05-14T03:53:15;101872.0;;;12.29;87.08
64023;BME280;50264;52.088;5.296;2023-05-14T03:54:51;101875.0;;;12.3;86.99
64023;BME280;50264;52.088;5.296;2023-05-14T03:58:03;101878.0;;;12.33;86.83
64023;BME280;50264;52.088;5.296;2023-05-14T03:59:39;101875.0;;;12.4;86.92
64023;BME280;50264;52.088;5.296;2023-05-14T04:01:16;101872.0;;;12.37;86.55
64023;BME280;50264;52.088;5.296;2023-05-14T04:02:52;101868.0;;;12.31;86.89
64023;BME280;50264;52.088;5.296;2023-05-14T04:06:04;101872.0;;;12.29;86.9
64023;BME280;50264;52.088;5.296;2023-05-14T04:07:40;101874.0;;;12.25;86.96
64023;BME280;50264;52.088;5.296;2023-05-14T04:09:16;101870.0;;;12.24;87.43
64023;BME280;50264;52.088;5.296;2023-05-14T04:12:29;101865.0;;;12.22;87.18
64023;BME280;50264;52.088;5.296;2023-05-14T04:14:05;101864.0;;;12.18;86.96
64023;BME280;50264;52.088;5.296;2023-05-14T04:15:41;101866.0;;;12.12;87.42
64023;BME280;50264;52.088;5.296;2023-05-14T04:18:54;101861.0;;;12.13;87.66
64023;BME280;50264;52.088;5.296;2023-05-14T04:20:30;101861.0;;;12.18;87.69
64023;BME280;50264;52.088;5.296;2023-05-14T04:22:06;101855.0;;;12.16;87.81
64023;BME280;50264;52.088;5.296;2023-05-14T04:25:19;101855.0;;;12.24;87.27
64023;BME280;50264;52.088;5.296;2023-05-14T04:26:55;101859.0;;;12.32;86.83
64023;BME280;50264;52.088;5.296;2023-05-14T04:28:31;101858.0;;;12.31;86.76
64023;BME280;50264;52.088;5.296;2023-05-14T04:30:08;101855.0;;;12.29;86.95
64023;BME280;50264;52.088;5.296;2023-05-14T04:33:20;101859.0;;;12.25;87.39
64023;BME280;50264;52.088;5.296;2023-05-14T04:36:33;101870.0;;;12.11;88.03
64023;BME280;50264;52.088;5.296;2023-05-14T04:39:45;101869.0;;;12.16;88.75
64023;BME280;50264;52.088;5.296;2023-05-14T04:41:21;101865.0;;;12.2;88.33
64023;BME280;50264;52.088;5.296;2023-05-14T04:42:57;101867.0;;;12.32;88.21
64023;BME280;50264;52.088;5.296;2023-05-14T04:46:11;101864.0;;;12.3;87.39
64023;BME280;50264;52.088;5.296;2023-05-14T04:47:47;101865.0;;;12.3;87.8
64023;BME280;50264;52.088;5.296;2023-05-14T04:49:23;101867.0;;;12.36;88.27
64023;BME280;50264;52.088;5.296;2023-05-14T04:51:00;101861.0;;;12.33;88.02
64023;BME280;50264;52.088;5.296;2023-05-14T04:54:13;101862.0;;;12.48;87.91
64023;BME280;50264;52.088;5.296;2023-05-14T04:55:49;101860.0;;;12.49;88.05
64023;BME280;50264;52.088;5.296;2023-05-14T04:57:25;101862.0;;;12.52;87.71
64023;BME280;50264;52.088;5.296;2023-05-14T05:00:38;101865.0;;;12.57;87.91
64023;BME280;50264;52.088;5.296;2023-05-14T05:02:15;101865.0;;;12.63;87.85
64023;BME280;50264;52.088;5.296;2023-05-14T05:03:51;101868.0;;;12.67;87.82
64023;BME280;50264;52.088;5.296;2023-05-14T05:07:03;101869.0;;;12.71;87.55
64023;BME280;50264;52.088;5.296;2023-05-14T05:08:40;101867.0;;;12.85;87.17
64023;BME280;50264;52.088;5.296;2023-05-14T05:10:16;101868.0;;;12.88;86.85
64023;BME280;50264;52.088;5.296;2023-05-14T05:11:53;101863.0;;;12.99;86.99
64023;BME280;50264;52.088;5.296;2023-05-14T05:15:07;101864.0;;;13.06;87.01
64023;BME280;50264;52.088;5.296;2023-05-14T05:16:44;101865.0;;;13.09;86.17
64023;BME280;50264;52.088;5.296;2023-05-14T05:18:20;101870.0;;;13.19;85.66
64023;BME280;50264;52.088;5.296;2023-05-14T05:21:32;101867.0;;;13.24;86.53
64023;BME280;50264;52.088;5.296;2023-05-14T05:23:09;101871.0;;;13.25;85.95
64023;BME280;50264;52.088;5.296;2023-05-14T05:24:46;101873.0;;;13.33;85.95
64023;BME280;50264;52.088;5.296;2023-05-14T05:27:59;101871.0;;;13.37;85.31
64023;BME280;50264;52.088;5.296;2023-05-14T05:29:35;101875.0;;;13.37;85.62
64023;BME280;50264;52.088;5.296;2023-05-14T05:31:11;101876.0;;;13.33;86.23
64023;BME280;50264;52.088;5.296;2023-05-14T05:34:23;101880.0;;;13.43;85.32
64023;BME280;50264;52.088;5.296;2023-05-14T05:36:00;101878.0;;;13.37;85.04
64023;BME280;50264;52.088;5.296;2023-05-14T05:37:36;101882.0;;;13.43;86.4
64023;BME280;50264;52.088;5.296;2023-05-14T05:39:12;101881.0;;;13.62;83.81
64023;BME280;50264;52.088;5.296;2023-05-14T05:44:00;101880.0;;;13.64;84.97
64023;BME280;50264;52.088;5.296;2023-05-14T05:45:37;101880.0;;;13.59;84.16
64023;BME280;50264;52.088;5.296;2023-05-14T05:48:49;101876.0;;;13.66;84.88
64023;BME280;50264;52.088;5.296;2023-05-14T05:50:25;101880.0;;;13.68;85.39
64023;BME280;50264;52.088;5.296;2023-05-14T05:52:01;101884.0;;;13.75;85.74
64023;BME280;50264;52.088;5.296;2023-05-14T05:55:15;101886.0;;;13.75;85.54
64023;BME280;50264;52.088;5.296;2023-05-14T05:56:51;101883.0;;;13.87;84.95
64023;BME280;50264;52.088;5.296;2023-05-14T05:58:27;101883.0;;;13.97;84.32
64023;BME280;50264;52.088;5.296;2023-05-14T06:00:05;101876.0;;;14.08;83.99
64023;BME280;50264;52.088;5.296;2023-05-14T06:03:18;101878.0;;;14.11;84.8
64023;BME280;50264;52.088;5.296;2023-05-14T06:04:54;101876.0;;;14.11;84.88
64023;BME280;50264;52.088;5.296;2023-05-14T06:06:31;101877.0;;;14.22;83.45
64023;BME280;50264;52.088;5.296;2023-05-14T06:09:43;101880.0;;;14.32;83.17
64023;BME280;50264;52.088;5.296;2023-05-14T06:11:19;101884.0;;;14.41;82.81
64023;BME280;50264;52.088;5.296;2023-05-14T06:12:55;101882.0;;;14.53;83.69
64023;BME280;50264;52.088;5.296;2023-05-14T06:16:08;101880.0;;;14.66;84.45
64023;BME280;50264;52.088;5.296;2023-05-14T06:17:45;101886.0;;;14.71;82.36
64023;BME280;50264;52.088;5.296;2023-05-14T06:19:21;101884.0;;;14.71;82.21
64023;BME280;50264;52.088;5.296;2023-05-14T06:20:58;101874.0;;;14.8;81.12
64023;BME280;50264;52.088;5.296;2023-05-14T06:24:10;101875.0;;;14.79;81.48
64023;BME280;50264;52.088;5.296;2023-05-14T06:25:48;101878.0;;;14.98;83.23
64023;BME280;50264;52.088;5.296;2023-05-14T06:27:25;101884.0;;;14.98;80.13
64023;BME280;50264;52.088;5.296;2023-05-14T06:30:37;101882.0;;;15.09;80.62
64023;BME280;50264;52.088;5.296;2023-05-14T06:32:13;101886.0;;;15.08;80.14
64023;BME280;50264;52.088;5.296;2023-05-14T06:33:49;101889.0;;;15.23;81.08
64023;BME280;50264;52.088;5.296;2023-05-14T06:37:02;101891.0;;;15.28;80.61
64023;BME280;50264;52.088;5.296;2023-05-14T06:38:38;101886.0;;;15.25;80.17
64023;BME280;50264;52.088;5.296;2023-05-14T06:40:14;101891.0;;;15.3;80.45
64023;BME280;50264;52.088;5.296;2023-05-14T06:41:50;101891.0;;;15.33;80.08
64023;BME280;50264;52.088;5.296;2023-05-14T06:45:03;101885.0;;;15.35;80.05
64023;BME280;50264;52.088;5.296;2023-05-14T06:46:39;101889.0;;;15.4;79.12
64023;BME280;50264;52.088;5.296;2023-05-14T06:48:16;101893.0;;;15.46;80.03
64023;BME280;50264;52.088;5.296;2023-05-14T06:51:29;101886.0;;;15.45;79.33
64023;BME280;50264;52.088;5.296;2023-05-14T06:53:05;101890.0;;;15.47;79.12
64023;BME280;50264;52.088;5.296;2023-05-14T06:54:41;101884.0;;;15.48;80.08
64023;BME280;50264;52.088;5.296;2023-05-14T06:57:54;101868.0;;;15.54;79.16
64023;BME280;50264;52.088;5.296;2023-05-14T06:59:30;101875.0;;;15.53;79.53
64023;BME280;50264;52.088;5.296;2023-05-14T07:01:06;101874.0;;;15.62;78.77
64023;BME280;50264;52.088;5.296;2023-05-14T07:04:18;101866.0;;;15.66;79.05
64023;BME280;50264;52.088;5.296;2023-05-14T07:05:56;101868.0;;;15.75;79.55
64023;BME280;50264;52.088;5.296;2023-05-14T07:07:32;101871.0;;;15.97;79.88
64023;BME280;50264;52.088;5.296;2023-05-14T07:09:08;101866.0;;;16.03;78.24
64023;BME280;50264;52.088;5.296;2023-05-14T07:12:21;101864.0;;;16.06;78.37
64023;BME280;50264;52.088;5.296;2023-05-14T07:13:57;101866.0;;;16.18;78.77
64023;BME280;50264;52.088;5.296;2023-05-14T07:15:33;101870.0;;;16.28;79.02
64023;BME280;50264;52.088;5.296;2023-05-14T07:18:46;101870.0;;;16.32;78.64
64023;BME280;50264;52.088;5.296;2023-05-14T07:20:22;101877.0;;;16.29;77.8
64023;BME280;50264;52.088;5.296;2023-05-14T07:21:58;101876.0;;;16.29;78.37
64023;BME280;50264;52.088;5.296;2023-05-14T07:25:11;101875.0;;;16.27;78.55
64023;BME280;50264;52.088;5.296;2023-05-14T07:26:47;101878.0;;;16.27;78.64
64023;BME280;50264;52.088;5.296;2023-05-14T07:28:24;101875.0;;;16.23;79.08
64023;BME280;50264;52.088;5.296;2023-05-14T07:30:00;101878.0;;;16.22;78.47
64023;BME280;50264;52.088;5.296;2023-05-14T07:33:12;101880.0;;;16.32;79.31
64023;BME280;50264;52.088;5.296;2023-05-14T07:34:48;101877.0;;;16.34;77.31
64023;BME280;50264;52.088;5.296;2023-05-14T07:36:24;101877.0;;;16.37;79.03
64023;BME280;50264;52.088;5.296;2023-05-14T07:39:38;101878.0;;;16.36;78.33
64023;BME280;50264;52.088;5.296;2023-05-14T07:41:14;101878.0;;;16.36;79.14
64023;BME280;50264;52.088;5.296;2023-05-14T07:42:51;101873.0;;;16.36;79.27
64023;BME280;50264;52.088;5.296;2023-05-14T07:47:40;101868.0;;;16.66;78.97
64023;BME280;50264;52.088;5.296;2023-05-14T07:49:17;101869.0;;;16.64;77.66
64023;BME280;50264;52.088;5.296;2023-05-14T07:50:53;101865.0;;;16.59;77.75
64023;BME280;50264;52.088;5.296;2023-05-14T07:54:06;101864.0;;;16.71;78.87
64023;BME280;50264;52.088;5.296;2023-05-14T07:55:43;101860.0;;;16.81;76.3
64023;BME280;50264;52.088;5.296;2023-05-14T07:57:19;101861.0;;;16.84;76.36
64023;BME280;50264;52.088;5.296;2023-05-14T08:00:33;101864.0;;;16.95;76.22
64023;BME280;50264;52.088;5.296;2023-05-14T08:02:09;101857.0;;;16.86;74.61
64023;BME280;50264;52.088;5.296;2023-05-14T08:03:45;101860.0;;;16.96;75.2
64023;BME280;50264;52.088;5.296;2023-05-14T08:06:57;101861.0;;;17.0;75.17
64023;BME280;50264;52.088;5.296;2023-05-14T08:08:33;101863.0;;;17.0;74.69
64023;BME280;50264;52.088;5.296;2023-05-14T08:10:10;101861.0;;;17.11;75.27
64023;BME280;50264;52.088;5.296;2023-05-14T08:13:22;101868.0;;;17.16;74.62
64023;BME280;50264;52.088;5.296;2023-05-14T08:14:58;101870.0;;;17.27;73.67
64023;BME280;50264;52.088;5.296;2023-05-14T08:16:34;101867.0;;;17.27;73.48
64023;BME280;50264;52.088;5.296;2023-05-14T08:18:10;101864.0;;;17.3;73.81
64023;BME280;50264;52.088;5.296;2023-05-14T08:21:22;101862.0;;;17.22;72.09
64023;BME280;50264;52.088;5.296;2023-05-14T08:22:59;101862.0;;;17.3;74.77
64023;BME280;50264;52.088;5.296;2023-05-14T08:24:35;101864.0;;;17.36;75.03
64023;BME280;50264;52.088;5.296;2023-05-14T08:27:47;101862.0;;;17.25;72.69
64023;BME280;50264;52.088;5.296;2023-05-14T08:29:23;101864.0;;;17.36;72.47
64023;BME280;50264;52.088;5.296;2023-05-14T08:30:59;101863.0;;;17.52;72.13
64023;BME280;50264;52.088;5.296;2023-05-14T08:34:12;101863.0;;;17.64;71.39
64023;BME280;50264;52.088;5.296;2023-05-14T08:35:51;101862.0;;;17.73;72.33
64023;BME280;50264;52.088;5.296;2023-05-14T08:37:27;101861.0;;;17.75;71.89
64023;BME280;50264;52.088;5.296;2023-05-14T08:39:03;101855.0;;;17.84;70.44
64023;BME280;50264;52.088;5.296;2023-05-14T08:42:19;101855.0;;;17.95;71.05
64023;BME280;50264;52.088;5.296;2023-05-14T08:44:01;101853.0;;;18.06;69.25
64023;BME280;50264;52.088;5.296;2023-05-14T08:45:45;101855.0;;;18.05;67.55
64023;BME280;50264;52.088;5.296;2023-05-14T08:47:24;101849.0;;;18.09;68.19
64023;BME280;50264;52.088;5.296;2023-05-14T08:50:55;101846.0;;;18.18;69.55
64023;BME280;50264;52.088;5.296;2023-05-14T08:52:32;101843.0;;;18.34;69.14
64023;BME280;50264;52.088;5.296;2023-05-14T08:54:09;101838.0;;;18.28;68.8
64023;BME280;50264;52.088;5.296;2023-05-14T08:55:49;101837.0;;;18.5;67.37
64023;BME280;50264;52.088;5.296;2023-05-14T08:59:05;101839.0;;;18.57;66.97
64023;BME280;50264;52.088;5.296;2023-05-14T09:00:41;101837.0;;;18.52;66.73
64023;BME280;50264;52.088;5.296;2023-05-14T09:02:20;101842.0;;;18.45;67.67
64023;BME280;50264;52.088;5.296;2023-05-14T09:05:36;101840.0;;;18.48;66.64
64023;BME280;50264;52.088;5.296;2023-05-14T09:07:13;101835.0;;;18.61;66.52
64023;BME280;50264;52.088;5.296;2023-05-14T09:08:50;101830.0;;;18.77;67.09
64023;BME280;50264;52.088;5.296;2023-05-14T09:10:27;101830.0;;;18.84;66.47
64023;BME280;50264;52.088;5.296;2023-05-14T09:13:41;101830.0;;;18.95;68.75
64023;BME280;50264;52.088;5.296;2023-05-14T09:15:17;101825.0;;;18.88;64.41
64023;BME280;50264;52.088;5.296;2023-05-14T09:16:54;101821.0;;;19.02;65.36
64023;BME280;50264;52.088;5.296;2023-05-14T09:20:08;101824.0;;;19.13;66.59
64023;BME280;50264;52.088;5.296;2023-05-14T09:21:45;101823.0;;;19.18;65.27
64023;BME280;50264;52.088;5.296;2023-05-14T09:23:24;101820.0;;;19.22;64.74
64023;BME280;50264;52.088;5.296;2023-05-14T09:25:02;101823.0;;;19.41;65.7
64023;BME280;50264;52.088;5.296;2023-05-14T09:28:17;101817.0;;;19.32;64.75
64023;BME280;50264;52.088;5.296;2023-05-14T09:29:54;101817.0;;;19.32;63.63
64023;BME280;50264;52.088;5.296;2023-05-14T09:31:30;101813.0;;;19.54;66.28
64023;BME280;50264;52.088;5.296;2023-05-14T09:34:45;101814.0;;;19.48;64.13
64023;BME280;50264;52.088;5.296;2023-05-14T09:36:22;101813.0;;;19.59;64.16
64023;BME280;50264;52.088;5.296;2023-05-14T09:37:58;101805.0;;;19.86;65.91
64023;BME280;50264;52.088;5.296;2023-05-14T09:41:13;101805.0;;;19.93;62.91
64023;BME280;50264;52.088;5.296;2023-05-14T09:42:49;101802.0;;;20.09;62.95
64023;BME280;50264;52.088;5.296;2023-05-14T09:44:25;101809.0;;;20.23;62.39
64023;BME280;50264;52.088;5.296;2023-05-14T09:46:03;101807.0;;;20.36;61.8
64023;BME280;50264;52.088;5.296;2023-05-14T09:49:18;101803.0;;;20.29;62.05
64023;BME280;50264;52.088;5.296;2023-05-14T09:50:54;101802.0;;;20.43;61.89
64023;BME280;50264;52.088;5.296;2023-05-14T09:52:31;101803.0;;;20.71;60.91
64023;BME280;50264;52.088;5.296;2023-05-14T09:55:45;101795.0;;;20.78;60.86
64023;BME280;50264;52.088;5.296;2023-05-14T09:57:22;101795.0;;;20.84;62.33
64023;BME280;50264;52.088;5.296;2023-05-14T09:59:00;101795.0;;;20.59;60.24
64023;BME280;50264;52.088;5.296;2023-05-14T10:00:36;101798.0;;;20.68;58.88
64023;BME280;50264;52.088;5.296;2023-05-14T10:03:58;101802.0;;;20.68;60.58
64023;BME280;50264;52.088;5.296;2023-05-14T10:05:39;101797.0;;;20.47;59.43
64023;BME280;50264;52.088;5.296;2023-05-14T10:07:20;101795.0;;;20.61;61.46
64023;BME280;50264;52.088;5.296;2023-05-14T10:09:00;101797.0;;;20.69;61.7
64023;BME280;50264;52.088;5.296;2023-05-14T10:12:20;101792.0;;;20.77;61.17
64023;BME280;50264;52.088;5.296;2023-05-14T10:14:01;101793.0;;;20.95;63.12
64023;BME280;50264;52.088;5.296;2023-05-14T10:15:47;101791.0;;;20.89;58.99
64023;BME280;50264;52.088;5.296;2023-05-14T10:17:30;101786.0;;;21.0;59.56
64023;BME280;50264;52.088;5.296;2023-05-14T10:20:47;101783.0;;;21.18;60.33
64023;BME280;50264;52.088;5.296;2023-05-14T10:22:40;101783.0;;;21.24;60.94
64023;BME280;50264;52.088;5.296;2023-05-14T10:24:18;101781.0;;;21.21;60.63
64023;BME280;50264;52.088;5.296;2023-05-14T10:25:55;101775.0;;;21.22;59.72
64023;BME280;50264;52.088;5.296;2023-05-14T10:29:09;101776.0;;;21.13;60.24
64023;BME280;50264;52.088;5.296;2023-05-14T10:30:47;101777.0;;;21.35;59.09
64023;BME280;50264;52.088;5.296;2023-05-14T10:32:24;101780.0;;;21.53;58.08
64023;BME280;50264;52.088;5.296;2023-05-14T10:36:09;101776.0;;;21.7;59.6
64023;BME280;50264;52.088;5.296;2023-05-14T10:37:45;101780.0;;;21.6;57.77
64023;BME280;50264;52.088;5.296;2023-05-14T10:39:22;101775.0;;;21.53;59.03
64023;BME280;50264;52.088;5.296;2023-05-14T10:41:15;101777.0;;;21.69;58.68
64023;BME280;50264;52.088;5.296;2023-05-14T10:42:52;101774.0;;;21.79;55.53
64023;BME280;50264;52.088;5.296;2023-05-14T10:44:31;101770.0;;;21.97;55.11
64023;BME280;50264;52.088;5.296;2023-05-14T10:47:49;101762.0;;;21.9;56.22
64023;BME280;50264;52.088;5.296;2023-05-14T10:51:02;101758.0;;;22.23;54.79
64023;BME280;50264;52.088;5.296;2023-05-14T10:54:16;101755.0;;;22.4;55.79
64023;BME280;50264;52.088;5.296;2023-05-14T10:55:53;101762.0;;;22.17;55.07
64023;BME280;50264;52.088;5.296;2023-05-14T10:57:31;101753.0;;;22.17;54.16
64023;BME280;50264;52.088;5.296;2023-05-14T11:00:46;101753.0;;;22.27;54.83
64023;BME280;50264;52.088;5.296;2023-05-14T11:02:24;101753.0;;;22.23;56.35
64023;BME280;50264;52.088;5.296;2023-05-14T11:04:01;101752.0;;;22.27;55.75
64023;BME280;50264;52.088;5.296;2023-05-14T11:05:39;101755.0;;;22.31;54.51
64023;BME280;50264;52.088;5.296;2023-05-14T11:08:54;101749.0;;;22.34;55.85
64023;BME280;50264;52.088;5.296;2023-05-14T11:10:31;101746.0;;;22.51;54.85
64023;BME280;50264;52.088;5.296;2023-05-14T11:12:07;101741.0;;;22.54;55.41
64023;BME280;50264;52.088;5.296;2023-05-14T11:15:23;101740.0;;;22.67;54.57
64023;BME280;50264;52.088;5.296;2023-05-14T11:17:01;101742.0;;;22.88;55.84